2026/08/17

Sensor Date Temp./Hum.
h3-hermonville 17-08-2026 - 23:59 22.5°C / 58%
h4-hermonville 17-08-2026 - 23:58 23.6°C / 54%
h2-hermonville 17-08-2026 - 23:53 25°C / 52%
h1-hermonville 17-08-2026 - 23:53 21.9°C / 60.5%
h3-hermonville 17-08-2026 - 23:49 22.7°C / 57%
h4-hermonville 17-08-2026 - 23:48 23.8°C / 53.5%
h2-hermonville 17-08-2026 - 23:43 25.5°C / 50.5%
h3-hermonville 17-08-2026 - 23:39 22.7°C / 57%
h4-hermonville 17-08-2026 - 23:38 23.7°C / 53%
h2-hermonville 17-08-2026 - 23:33 25.4°C / 50.5%
h1-hermonville 17-08-2026 - 23:33 22.2°C / 59%
h3-hermonville 17-08-2026 - 23:29 23.1°C / 56%
h4-hermonville 17-08-2026 - 23:28 24°C / 53%
h2-hermonville 17-08-2026 - 23:23 25.8°C / 49.5%
h1-hermonville 17-08-2026 - 23:23 22.3°C / 58.5%
h3-hermonville 17-08-2026 - 23:19 23.2°C / 55.5%
h2-hermonville 17-08-2026 - 23:13 25.8°C / 49.5%
h1-hermonville 17-08-2026 - 23:13 22.4°C / 58%
h4-hermonville 17-08-2026 - 23:08 24.2°C / 52%
h2-hermonville 17-08-2026 - 23:03 26.1°C / 49%
h1-hermonville 17-08-2026 - 23:03 22.7°C / 57%
h3-hermonville 17-08-2026 - 22:59 23.5°C / 54.5%
h4-hermonville 17-08-2026 - 22:58 24.3°C / 51.5%
h2-hermonville 17-08-2026 - 22:53 26°C / 48%
h1-hermonville 17-08-2026 - 22:53 22.8°C / 56.5%
h3-hermonville 17-08-2026 - 22:49 23.5°C / 53.5%
h4-hermonville 17-08-2026 - 22:48 24.5°C / 50.5%
h1-hermonville 17-08-2026 - 22:43 23.1°C / 55.5%
h3-hermonville 17-08-2026 - 22:39 23.8°C / 52.5%
h4-hermonville 17-08-2026 - 22:38 24.6°C / 49.5%
h2-hermonville 17-08-2026 - 22:33 26.7°C / 46.5%
h1-hermonville 17-08-2026 - 22:33 23.3°C / 54%
h3-hermonville 17-08-2026 - 22:29 24°C / 51.5%
h4-hermonville 17-08-2026 - 22:28 24.8°C / 49%
h2-hermonville 17-08-2026 - 22:23 26.8°C / 46%
h1-hermonville 17-08-2026 - 22:23 23.5°C / 53%
h3-hermonville 17-08-2026 - 22:19 24.2°C / 50.5%
h4-hermonville 17-08-2026 - 22:18 25°C / 48%
h2-hermonville 17-08-2026 - 22:13 26.8°C / 45.5%
h1-hermonville 17-08-2026 - 22:13 23.8°C / 52%
h3-hermonville 17-08-2026 - 22:09 24.4°C / 49.5%
h2-hermonville 17-08-2026 - 22:03 27.2°C / 45%
h3-hermonville 17-08-2026 - 21:59 24.6°C / 49%
h4-hermonville 17-08-2026 - 21:58 25.1°C / 47%
h2-hermonville 17-08-2026 - 21:53 27.4°C / 44.5%
h1-hermonville 17-08-2026 - 21:53 24.1°C / 51%
h3-hermonville 17-08-2026 - 21:50 24.7°C / 48.5%
h4-hermonville 17-08-2026 - 21:48 25.3°C / 47%
h2-hermonville 17-08-2026 - 21:43 27.4°C / 43.5%
h1-hermonville 17-08-2026 - 21:43 24.3°C / 50%
h3-hermonville 17-08-2026 - 21:40 24.9°C / 48%
h4-hermonville 17-08-2026 - 21:38 25.4°C / 46.5%
h2-hermonville 17-08-2026 - 21:33 27.2°C / 44.5%
h1-hermonville 17-08-2026 - 21:33 24.5°C / 49.5%
h3-hermonville 17-08-2026 - 21:29 25.1°C / 47.5%
h4-hermonville 17-08-2026 - 21:28 25.5°C / 46%
h2-hermonville 17-08-2026 - 21:23 27.5°C / 44%
h1-hermonville 17-08-2026 - 21:23 24.7°C / 48.5%
h3-hermonville 17-08-2026 - 21:19 25.2°C / 47%
h4-hermonville 17-08-2026 - 21:18 25.6°C / 45.5%
h2-hermonville 17-08-2026 - 21:13 27.6°C / 43.5%
h1-hermonville 17-08-2026 - 21:13 24.9°C / 48%
h4-hermonville 17-08-2026 - 21:08 25.7°C / 45.5%
h2-hermonville 17-08-2026 - 21:03 27.8°C / 43.5%
h1-hermonville 17-08-2026 - 21:03 25°C / 48.5%
h3-hermonville 17-08-2026 - 20:59 25.4°C / 47%
h2-hermonville 17-08-2026 - 20:53 27.9°C / 44%
h1-hermonville 17-08-2026 - 20:53 25.1°C / 49%
h3-hermonville 17-08-2026 - 20:49 25.5°C / 47%
h2-hermonville 17-08-2026 - 20:43 28°C / 43%
h1-hermonville 17-08-2026 - 20:43 25.2°C / 48%
h3-hermonville 17-08-2026 - 20:39 25.8°C / 47%
h4-hermonville 17-08-2026 - 20:38 26°C / 46%
h2-hermonville 17-08-2026 - 20:34 28.2°C / 43%
h1-hermonville 17-08-2026 - 20:33 25.4°C / 48%
h3-hermonville 17-08-2026 - 20:29 25.9°C / 47%
h4-hermonville 17-08-2026 - 20:28 26.2°C / 46%
h2-hermonville 17-08-2026 - 20:23 28.4°C / 43.5%
h1-hermonville 17-08-2026 - 20:23 25.6°C / 48%
h3-hermonville 17-08-2026 - 20:19 26°C / 46.5%
h4-hermonville 17-08-2026 - 20:18 26.4°C / 45.5%
h2-hermonville 17-08-2026 - 20:13 28.6°C / 42.5%
h1-hermonville 17-08-2026 - 20:13 25.7°C / 48%
h4-hermonville 17-08-2026 - 20:08 26.6°C / 45%
h2-hermonville 17-08-2026 - 20:03 29.1°C / 41.5%
h1-hermonville 17-08-2026 - 20:03 26.1°C / 47%
h4-hermonville 17-08-2026 - 19:58 26.7°C / 44.5%
h2-hermonville 17-08-2026 - 19:53 29.3°C / 41%
h1-hermonville 17-08-2026 - 19:53 26.3°C / 46%
h3-hermonville 17-08-2026 - 19:49 26.6°C / 45%
h4-hermonville 17-08-2026 - 19:48 26.8°C / 44.5%
h2-hermonville 17-08-2026 - 19:43 30.1°C / 40%
h1-hermonville 17-08-2026 - 19:43 26.4°C / 45.5%
h3-hermonville 17-08-2026 - 19:39 26.8°C / 44%
h4-hermonville 17-08-2026 - 19:38 26.9°C / 44%
h2-hermonville 17-08-2026 - 19:33 30.7°C / 38.5%
h1-hermonville 17-08-2026 - 19:33 26.5°C / 45.5%
h3-hermonville 17-08-2026 - 19:29 26.9°C / 44%
h4-hermonville 17-08-2026 - 19:28 27.1°C / 43.5%
h2-hermonville 17-08-2026 - 19:23 31°C / 38.5%
h1-hermonville 17-08-2026 - 19:23 26.7°C / 45.5%
h3-hermonville 17-08-2026 - 19:19 27.2°C / 44.5%
h4-hermonville 17-08-2026 - 19:18 27.5°C / 44%
h2-hermonville 17-08-2026 - 19:13 31.1°C / 39%
h1-hermonville 17-08-2026 - 19:13 27.1°C / 46%
h3-hermonville 17-08-2026 - 19:09 27.5°C / 45%
h4-hermonville 17-08-2026 - 19:08 27.4°C / 45%
h1-hermonville 17-08-2026 - 19:03 27°C / 47%
h3-hermonville 17-08-2026 - 18:59 27.3°C / 45.5%
h2-hermonville 17-08-2026 - 18:53 31.1°C / 40%
h1-hermonville 17-08-2026 - 18:53 27°C / 47.5%
h3-hermonville 17-08-2026 - 18:49 27.2°C / 46.5%
h4-hermonville 17-08-2026 - 18:48 27.3°C / 45.5%
h2-hermonville 17-08-2026 - 18:43 30.9°C / 40%
h3-hermonville 17-08-2026 - 18:39 27.3°C / 46%
h2-hermonville 17-08-2026 - 18:33 31.2°C / 39%
h1-hermonville 17-08-2026 - 18:33 26.8°C / 47.5%
h3-hermonville 17-08-2026 - 18:29 27.3°C / 46%
h4-hermonville 17-08-2026 - 18:28 27.4°C / 46%
h2-hermonville 17-08-2026 - 18:23 30.9°C / 40%
h1-hermonville 17-08-2026 - 18:23 26.9°C / 48%
h3-hermonville 17-08-2026 - 18:19 27.2°C / 46.5%
h2-hermonville 17-08-2026 - 18:13 32.3°C / 38%
h1-hermonville 17-08-2026 - 18:13 27.1°C / 47.5%
h3-hermonville 17-08-2026 - 18:09 27.3°C / 46.5%
h2-hermonville 17-08-2026 - 18:03 32.1°C / 38.5%
h3-hermonville 17-08-2026 - 17:59 27.3°C / 46.5%
h2-hermonville 17-08-2026 - 17:53 31.8°C / 38.5%
h1-hermonville 17-08-2026 - 17:53 27°C / 47.5%
h3-hermonville 17-08-2026 - 17:49 27.2°C / 47%
h4-hermonville 17-08-2026 - 17:48 27.3°C / 46%
h1-hermonville 17-08-2026 - 17:43 26.8°C / 48%
h3-hermonville 17-08-2026 - 17:39 27.3°C / 46.5%
h4-hermonville 17-08-2026 - 17:38 27.5°C / 45.5%
h2-hermonville 17-08-2026 - 17:33 31.1°C / 40%
h1-hermonville 17-08-2026 - 17:33 27.1°C / 47.5%
h3-hermonville 17-08-2026 - 17:29 27.6°C / 46%
h2-hermonville 17-08-2026 - 17:23 30.6°C / 41.5%
h3-hermonville 17-08-2026 - 17:19 27.5°C / 46.5%
h4-hermonville 17-08-2026 - 17:18 27.4°C / 46%
h2-hermonville 17-08-2026 - 17:13 29.5°C / 43.5%
h1-hermonville 17-08-2026 - 17:13 26.7°C / 48.5%
h4-hermonville 17-08-2026 - 17:08 27.5°C / 46%
h2-hermonville 17-08-2026 - 17:03 30.4°C / 41.5%
h1-hermonville 17-08-2026 - 17:03 26.9°C / 48.5%
h4-hermonville 17-08-2026 - 16:58 27.4°C / 46.5%
h1-hermonville 17-08-2026 - 16:53 26.7°C / 48.5%
h2-hermonville 17-08-2026 - 16:43 31.1°C / 41%
h1-hermonville 17-08-2026 - 16:43 26.7°C / 48.5%
h3-hermonville 17-08-2026 - 16:39 27.7°C / 46.5%
h4-hermonville 17-08-2026 - 16:38 27.5°C / 46.5%
h2-hermonville 17-08-2026 - 16:33 30°C / 42.5%
h1-hermonville 17-08-2026 - 16:33 26.7°C / 49.5%
h3-hermonville 17-08-2026 - 16:29 27.5°C / 46.5%
h4-hermonville 17-08-2026 - 16:28 27.6°C / 46%
h1-hermonville 17-08-2026 - 16:23 27.2°C / 48%
h3-hermonville 17-08-2026 - 16:19 27.4°C / 46.5%
h4-hermonville 17-08-2026 - 16:18 27.7°C / 45%
h1-hermonville 17-08-2026 - 16:13 26.6°C / 49.5%
h3-hermonville 17-08-2026 - 16:09 27°C / 48%
h4-hermonville 17-08-2026 - 16:08 27.5°C / 46%
h2-hermonville 17-08-2026 - 16:03 28.6°C / 45.5%
h1-hermonville 17-08-2026 - 16:03 26.2°C / 50%
h4-hermonville 17-08-2026 - 15:58 27.5°C / 46%
h2-hermonville 17-08-2026 - 15:53 28.9°C / 45.5%
h1-hermonville 17-08-2026 - 15:53 26.4°C / 50.5%
h3-hermonville 17-08-2026 - 15:49 27°C / 48%
h4-hermonville 17-08-2026 - 15:48 27.5°C / 46%
h2-hermonville 17-08-2026 - 15:43 28.2°C / 46.5%
h1-hermonville 17-08-2026 - 15:43 26.3°C / 50%
h3-hermonville 17-08-2026 - 15:39 27°C / 47.5%
h4-hermonville 17-08-2026 - 15:38 27.4°C / 46%
h2-hermonville 17-08-2026 - 15:33 28.2°C / 46%
h1-hermonville 17-08-2026 - 15:33 26.3°C / 49.5%
h3-hermonville 17-08-2026 - 15:29 26.6°C / 48.5%
h4-hermonville 17-08-2026 - 15:28 27.4°C / 46%
h2-hermonville 17-08-2026 - 15:23 28°C / 46%
h1-hermonville 17-08-2026 - 15:23 26.1°C / 50%
h3-hermonville 17-08-2026 - 15:19 26.6°C / 48%
h4-hermonville 17-08-2026 - 15:18 27.3°C / 46%
h2-hermonville 17-08-2026 - 15:13 27.9°C / 46%
h1-hermonville 17-08-2026 - 15:13 26.3°C / 49%
h3-hermonville 17-08-2026 - 15:09 26.4°C / 47.5%
h4-hermonville 17-08-2026 - 15:08 27.3°C / 45%
h2-hermonville 17-08-2026 - 15:03 27.9°C / 46%
h1-hermonville 17-08-2026 - 15:03 26°C / 48.5%
h3-hermonville 17-08-2026 - 14:59 26.7°C / 47.5%
h4-hermonville 17-08-2026 - 14:58 27.4°C / 45.5%
h2-hermonville 17-08-2026 - 14:53 28.2°C / 44.5%
h1-hermonville 17-08-2026 - 14:53 26.1°C / 48.5%
h3-hermonville 17-08-2026 - 14:49 26.3°C / 47%
h4-hermonville 17-08-2026 - 14:48 27.5°C / 44.5%
h2-hermonville 17-08-2026 - 14:43 28.2°C / 45%
h1-hermonville 17-08-2026 - 14:43 26.2°C / 48%
h3-hermonville 17-08-2026 - 14:39 26.4°C / 47%
h4-hermonville 17-08-2026 - 14:38 27.5°C / 43.5%
h2-hermonville 17-08-2026 - 14:33 27.8°C / 45%
h1-hermonville 17-08-2026 - 14:33 26.3°C / 48.5%
h3-hermonville 17-08-2026 - 14:29 26.1°C / 48.5%
h4-hermonville 17-08-2026 - 14:28 27.4°C / 45%
h2-hermonville 17-08-2026 - 14:23 27.8°C / 46%
h1-hermonville 17-08-2026 - 14:23 26°C / 49%
h4-hermonville 17-08-2026 - 14:18 27.5°C / 45.5%
h2-hermonville 17-08-2026 - 14:13 27.9°C / 47%
h1-hermonville 17-08-2026 - 14:13 26.1°C / 49%
h3-hermonville 17-08-2026 - 14:09 26.5°C / 48.5%
h4-hermonville 17-08-2026 - 14:08 27.4°C / 45%
h2-hermonville 17-08-2026 - 14:03 27.2°C / 46.5%
h1-hermonville 17-08-2026 - 14:03 26°C / 50%
h4-hermonville 17-08-2026 - 13:58 27.4°C / 45.5%
h2-hermonville 17-08-2026 - 13:53 27.2°C / 47%
h1-hermonville 17-08-2026 - 13:53 25.6°C / 51%
h3-hermonville 17-08-2026 - 13:49 26.3°C / 49%
h4-hermonville 17-08-2026 - 13:48 27.4°C / 45.5%
h2-hermonville 17-08-2026 - 13:43 26.7°C / 48%
h1-hermonville 17-08-2026 - 13:43 25.5°C / 52%
h3-hermonville 17-08-2026 - 13:39 26°C / 49.5%
h4-hermonville 17-08-2026 - 13:38 27.2°C / 45.5%
h2-hermonville 17-08-2026 - 13:33 26.8°C / 49%
h3-hermonville 17-08-2026 - 13:29 25.7°C / 49.5%
h4-hermonville 17-08-2026 - 13:28 27.3°C / 46%
h2-hermonville 17-08-2026 - 13:23 26.6°C / 49%
h1-hermonville 17-08-2026 - 13:23 24.8°C / 52.5%
h3-hermonville 17-08-2026 - 13:19 26°C / 49%
h4-hermonville 17-08-2026 - 13:18 27.6°C / 45%
h2-hermonville 17-08-2026 - 13:13 26.4°C / 49%
h3-hermonville 17-08-2026 - 13:09 25.9°C / 50%
h4-hermonville 17-08-2026 - 13:08 27.4°C / 46%
h2-hermonville 17-08-2026 - 13:03 26.3°C / 50%
h1-hermonville 17-08-2026 - 13:03 24.5°C / 53%
h4-hermonville 17-08-2026 - 12:58 27.5°C / 45%
h2-hermonville 17-08-2026 - 12:53 25.7°C / 51.5%
h1-hermonville 17-08-2026 - 12:53 24.8°C / 53%
h3-hermonville 17-08-2026 - 12:49 25.8°C / 50%
h4-hermonville 17-08-2026 - 12:48 27.6°C / 45%
h2-hermonville 17-08-2026 - 12:43 25.4°C / 51%
h1-hermonville 17-08-2026 - 12:43 24.5°C / 53.5%
h3-hermonville 17-08-2026 - 12:39 25.4°C / 49.5%
h4-hermonville 17-08-2026 - 12:38 28°C / 44%
h2-hermonville 17-08-2026 - 12:33 25.7°C / 50.5%
h1-hermonville 17-08-2026 - 12:33 24.2°C / 54.5%
h3-hermonville 17-08-2026 - 12:29 25.2°C / 51%
h4-hermonville 17-08-2026 - 12:28 27.9°C / 44.5%
h2-hermonville 17-08-2026 - 12:23 25.3°C / 52%
h1-hermonville 17-08-2026 - 12:23 24.1°C / 55%
h3-hermonville 17-08-2026 - 12:19 25.1°C / 51%
h2-hermonville 17-08-2026 - 12:13 25°C / 53%
h3-hermonville 17-08-2026 - 12:09 24.5°C / 55%
h4-hermonville 17-08-2026 - 12:08 27.1°C / 46.5%
h2-hermonville 17-08-2026 - 12:03 24.1°C / 55.5%
h1-hermonville 17-08-2026 - 12:03 23.2°C / 59%
h3-hermonville 17-08-2026 - 11:59 24°C / 55.5%
h4-hermonville 17-08-2026 - 11:58 28.7°C / 43.5%
h2-hermonville 17-08-2026 - 11:53 24.5°C / 55.5%
h1-hermonville 17-08-2026 - 11:53 22.4°C / 62%
h3-hermonville 17-08-2026 - 11:49 23.9°C / 57.5%
h4-hermonville 17-08-2026 - 11:48 28.8°C / 45%
h2-hermonville 17-08-2026 - 11:43 24.3°C / 57.5%
h1-hermonville 17-08-2026 - 11:43 21.7°C / 65%
h3-hermonville 17-08-2026 - 11:39 24.2°C / 58.5%
h4-hermonville 17-08-2026 - 11:38 27.2°C / 51%
h2-hermonville 17-08-2026 - 11:33 24.1°C / 58.5%
h1-hermonville 17-08-2026 - 11:33 21.5°C / 67%
h3-hermonville 17-08-2026 - 11:29 23.9°C / 58.5%
h4-hermonville 17-08-2026 - 11:28 23.8°C / 57.5%
h2-hermonville 17-08-2026 - 11:23 24.5°C / 58%
h1-hermonville 17-08-2026 - 11:23 21.7°C / 66%
h3-hermonville 17-08-2026 - 11:19 23.6°C / 60%
h4-hermonville 17-08-2026 - 11:18 24.6°C / 56%
h2-hermonville 17-08-2026 - 11:13 24.4°C / 58%
h1-hermonville 17-08-2026 - 11:13 21.6°C / 67.5%
h3-hermonville 17-08-2026 - 11:09 23.3°C / 61.5%
h4-hermonville 17-08-2026 - 11:08 24.6°C / 56.5%
h2-hermonville 17-08-2026 - 11:03 24.3°C / 59%
h1-hermonville 17-08-2026 - 11:03 21.4°C / 67.5%
h4-hermonville 17-08-2026 - 10:58 24.6°C / 56.5%
h2-hermonville 17-08-2026 - 10:53 24.3°C / 58.5%
h1-hermonville 17-08-2026 - 10:53 21.9°C / 67%
h3-hermonville 17-08-2026 - 10:49 23.9°C / 57.5%
h4-hermonville 17-08-2026 - 10:48 25°C / 52.5%
h2-hermonville 17-08-2026 - 10:43 23.9°C / 56.5%
h1-hermonville 17-08-2026 - 10:43 22.8°C / 61%
h3-hermonville 17-08-2026 - 10:39 23.6°C / 57%
h4-hermonville 17-08-2026 - 10:38 25.4°C / 51%
h2-hermonville 17-08-2026 - 10:33 23.6°C / 58.5%
h1-hermonville 17-08-2026 - 10:33 22.1°C / 62%
h3-hermonville 17-08-2026 - 10:29 23.1°C / 59%
h4-hermonville 17-08-2026 - 10:28 26.3°C / 50.5%
h2-hermonville 17-08-2026 - 10:23 23.1°C / 59.5%
h1-hermonville 17-08-2026 - 10:23 22.1°C / 63%
h3-hermonville 17-08-2026 - 10:19 22.8°C / 61%
h4-hermonville 17-08-2026 - 10:18 24.6°C / 54%
h2-hermonville 17-08-2026 - 10:13 22.6°C / 62.5%
h1-hermonville 17-08-2026 - 10:13 21.7°C / 64.5%
h3-hermonville 17-08-2026 - 10:09 22.4°C / 62.5%
h4-hermonville 17-08-2026 - 10:08 24.1°C / 57%
h2-hermonville 17-08-2026 - 10:03 21.9°C / 64%
h1-hermonville 17-08-2026 - 10:03 22.1°C / 64.5%
h3-hermonville 17-08-2026 - 09:59 21.3°C / 67%
h4-hermonville 17-08-2026 - 09:58 23.5°C / 59%
h2-hermonville 17-08-2026 - 09:53 21.7°C / 66%
h1-hermonville 17-08-2026 - 09:53 21.6°C / 67%
h3-hermonville 17-08-2026 - 09:49 21.1°C / 67.5%
h4-hermonville 17-08-2026 - 09:48 23.4°C / 59%
h2-hermonville 17-08-2026 - 09:43 21.6°C / 65.5%
h1-hermonville 17-08-2026 - 09:43 20.9°C / 69%
h3-hermonville 17-08-2026 - 09:39 21.6°C / 65.5%
h4-hermonville 17-08-2026 - 09:38 23.2°C / 60.5%
h2-hermonville 17-08-2026 - 09:33 21.9°C / 65%
h1-hermonville 17-08-2026 - 09:33 20°C / 72%
h3-hermonville 17-08-2026 - 09:29 21.8°C / 65.5%
h1-hermonville 17-08-2026 - 09:23 19.9°C / 72.5%
h3-hermonville 17-08-2026 - 09:19 21.9°C / 66%
h2-hermonville 17-08-2026 - 09:13 22.6°C / 65.5%
h1-hermonville 17-08-2026 - 09:13 20°C / 71.5%
h3-hermonville 17-08-2026 - 09:09 21.9°C / 66%
h4-hermonville 17-08-2026 - 09:08 23.1°C / 60.5%
h2-hermonville 17-08-2026 - 09:03 23.1°C / 63%
h1-hermonville 17-08-2026 - 09:03 20°C / 71.5%
h4-hermonville 17-08-2026 - 08:58 23.1°C / 59%
h2-hermonville 17-08-2026 - 08:53 23°C / 61.5%
h3-hermonville 17-08-2026 - 08:49 21.8°C / 64.5%
h4-hermonville 17-08-2026 - 08:48 23°C / 59.5%
h2-hermonville 17-08-2026 - 08:43 23.4°C / 60%
h1-hermonville 17-08-2026 - 08:43 19.7°C / 72.5%
h3-hermonville 17-08-2026 - 08:39 21.8°C / 64%
h4-hermonville 17-08-2026 - 08:38 22.8°C / 60%
h2-hermonville 17-08-2026 - 08:33 23.5°C / 60%
h1-hermonville 17-08-2026 - 08:33 19.7°C / 73%
h3-hermonville 17-08-2026 - 08:29 21.9°C / 65%
h2-hermonville 17-08-2026 - 08:23 23.5°C / 59.5%
h1-hermonville 17-08-2026 - 08:23 19.6°C / 73.5%
h3-hermonville 17-08-2026 - 08:19 21.6°C / 65%
h4-hermonville 17-08-2026 - 08:18 22.8°C / 60%
h2-hermonville 17-08-2026 - 08:13 23.7°C / 59.5%
h1-hermonville 17-08-2026 - 08:13 19.7°C / 72.5%
h3-hermonville 17-08-2026 - 08:09 21.8°C / 64.5%
h4-hermonville 17-08-2026 - 08:08 22.8°C / 60%
h2-hermonville 17-08-2026 - 08:03 23.3°C / 61%
h1-hermonville 17-08-2026 - 08:03 19.8°C / 72%
h3-hermonville 17-08-2026 - 07:59 21.8°C / 64%
h2-hermonville 17-08-2026 - 07:53 22.6°C / 62%
h1-hermonville 17-08-2026 - 07:53 19.9°C / 71%
h4-hermonville 17-08-2026 - 07:48 22.9°C / 59.5%
h2-hermonville 17-08-2026 - 07:43 21.8°C / 64%
h1-hermonville 17-08-2026 - 07:43 20°C / 71%
h3-hermonville 17-08-2026 - 07:39 21.5°C / 65%
h4-hermonville 17-08-2026 - 07:38 22.7°C / 60%
h2-hermonville 17-08-2026 - 07:33 21.7°C / 64.5%
h1-hermonville 17-08-2026 - 07:33 20°C / 71%
h3-hermonville 17-08-2026 - 07:29 21.4°C / 65.5%
h2-hermonville 17-08-2026 - 07:23 21.4°C / 66.5%
h1-hermonville 17-08-2026 - 07:23 20°C / 70.5%
h3-hermonville 17-08-2026 - 07:19 21.2°C / 66%
h4-hermonville 17-08-2026 - 07:18 22.4°C / 61.5%
h2-hermonville 17-08-2026 - 07:13 21.6°C / 65%
h1-hermonville 17-08-2026 - 07:13 20.4°C / 69%
h3-hermonville 17-08-2026 - 07:09 21°C / 66.5%
h2-hermonville 17-08-2026 - 07:03 21.5°C / 65.5%
h1-hermonville 17-08-2026 - 07:03 20.3°C / 69.5%
h2-hermonville 17-08-2026 - 06:53 21.4°C / 66.5%
h1-hermonville 17-08-2026 - 06:53 20.2°C / 70%
h3-hermonville 17-08-2026 - 06:49 21°C / 67%
h4-hermonville 17-08-2026 - 06:48 21.9°C / 63%
h1-hermonville 17-08-2026 - 06:43 20.4°C / 69.5%
h3-hermonville 17-08-2026 - 06:39 20.9°C / 67.5%
h2-hermonville 17-08-2026 - 06:33 21°C / 67.5%
h1-hermonville 17-08-2026 - 06:33 20.5°C / 69.5%
h3-hermonville 17-08-2026 - 06:29 21.1°C / 66%
h2-hermonville 17-08-2026 - 06:23 20.9°C / 67.5%
h1-hermonville 17-08-2026 - 06:23 20°C / 70.5%
h2-hermonville 17-08-2026 - 06:13 21°C / 68%
h1-hermonville 17-08-2026 - 06:13 20°C / 71.5%
h3-hermonville 17-08-2026 - 06:09 20.9°C / 68%
h2-hermonville 17-08-2026 - 06:03 21°C / 67.5%
h1-hermonville 17-08-2026 - 06:03 20.3°C / 70.5%
h3-hermonville 17-08-2026 - 05:59 21.3°C / 66%
h4-hermonville 17-08-2026 - 05:58 21.9°C / 63%
h2-hermonville 17-08-2026 - 05:53 21.4°C / 66%
h1-hermonville 17-08-2026 - 05:53 20°C / 70.5%
h3-hermonville 17-08-2026 - 05:49 21.4°C / 65.5%
h4-hermonville 17-08-2026 - 05:48 22.1°C / 62%
h2-hermonville 17-08-2026 - 05:43 21.3°C / 66.5%
h1-hermonville 17-08-2026 - 05:43 20.3°C / 70%
h3-hermonville 17-08-2026 - 05:39 21.4°C / 66%
h2-hermonville 17-08-2026 - 05:33 21.4°C / 67%
h1-hermonville 17-08-2026 - 05:33 20.9°C / 68%
h3-hermonville 17-08-2026 - 05:29 20.8°C / 68%
h2-hermonville 17-08-2026 - 05:23 21.2°C / 67%
h1-hermonville 17-08-2026 - 05:23 21.2°C / 67%
h3-hermonville 17-08-2026 - 05:19 20.7°C / 68.5%
h3-hermonville 17-08-2026 - 05:09 20.9°C / 67.5%
h2-hermonville 17-08-2026 - 05:03 21.3°C / 67%
h1-hermonville 17-08-2026 - 05:03 21.3°C / 67%
h3-hermonville 17-08-2026 - 04:59 21.3°C / 67%
h4-hermonville 17-08-2026 - 04:58 23°C / 60.5%
h1-hermonville 17-08-2026 - 04:53 21.2°C / 67.5%
h3-hermonville 17-08-2026 - 04:49 20.9°C / 67%
h4-hermonville 17-08-2026 - 04:48 22.4°C / 61.5%
h2-hermonville 17-08-2026 - 04:43 21.6°C / 65.5%
h1-hermonville 17-08-2026 - 04:43 20.8°C / 69%
h3-hermonville 17-08-2026 - 04:39 21.5°C / 66%
h2-hermonville 17-08-2026 - 04:33 22.5°C / 63%
h1-hermonville 17-08-2026 - 04:33 20.5°C / 69.5%
h3-hermonville 17-08-2026 - 04:29 22°C / 63.5%
h2-hermonville 17-08-2026 - 04:23 22°C / 64.5%
h1-hermonville 17-08-2026 - 04:23 20.5°C / 69.5%
h3-hermonville 17-08-2026 - 04:19 22.2°C / 63.5%
h4-hermonville 17-08-2026 - 04:18 22.1°C / 62.5%
h2-hermonville 17-08-2026 - 04:13 22.2°C / 64%
h3-hermonville 17-08-2026 - 04:09 22°C / 64.5%
h2-hermonville 17-08-2026 - 04:03 22.4°C / 63.5%
h1-hermonville 17-08-2026 - 04:03 20.9°C / 69%
h3-hermonville 17-08-2026 - 03:59 21.5°C / 66%
h4-hermonville 17-08-2026 - 03:58 22.6°C / 61%
h2-hermonville 17-08-2026 - 03:53 21.8°C / 65%
h1-hermonville 17-08-2026 - 03:53 20.9°C / 68%
h3-hermonville 17-08-2026 - 03:49 21.3°C / 66%
h4-hermonville 17-08-2026 - 03:48 22.6°C / 61%
h2-hermonville 17-08-2026 - 03:43 21.9°C / 65%
h1-hermonville 17-08-2026 - 03:43 21°C / 68%
h3-hermonville 17-08-2026 - 03:39 21.6°C / 65.5%
h4-hermonville 17-08-2026 - 03:38 22.7°C / 61%
h2-hermonville 17-08-2026 - 03:33 22.3°C / 63.5%
h1-hermonville 17-08-2026 - 03:33 20.9°C / 68.5%
h3-hermonville 17-08-2026 - 03:29 22°C / 64%
h2-hermonville 17-08-2026 - 03:23 22.3°C / 63.5%
h1-hermonville 17-08-2026 - 03:23 20.8°C / 69%
h3-hermonville 17-08-2026 - 03:19 22.3°C / 63%
h4-hermonville 17-08-2026 - 03:18 23.1°C / 59.5%
h2-hermonville 17-08-2026 - 03:13 22.5°C / 62.5%
h1-hermonville 17-08-2026 - 03:13 20.7°C / 68.5%
h3-hermonville 17-08-2026 - 03:09 22.3°C / 63%
h2-hermonville 17-08-2026 - 03:03 22.5°C / 62.5%
h1-hermonville 17-08-2026 - 03:03 21°C / 68%
h3-hermonville 17-08-2026 - 02:59 22.1°C / 63.5%
h4-hermonville 17-08-2026 - 02:58 23.2°C / 59.5%
h2-hermonville 17-08-2026 - 02:54 22.4°C / 63%
h1-hermonville 17-08-2026 - 02:53 20.9°C / 68%
h3-hermonville 17-08-2026 - 02:49 22.4°C / 62.5%
h2-hermonville 17-08-2026 - 02:43 22.5°C / 62.5%
h1-hermonville 17-08-2026 - 02:43 20.9°C / 68%
h3-hermonville 17-08-2026 - 02:39 22.1°C / 63%
h4-hermonville 17-08-2026 - 02:38 23.4°C / 58.5%
h2-hermonville 17-08-2026 - 02:33 22.8°C / 61.5%
h3-hermonville 17-08-2026 - 02:29 22.8°C / 61%
h2-hermonville 17-08-2026 - 02:23 23°C / 61%
h1-hermonville 17-08-2026 - 02:23 21.1°C / 67.5%
h4-hermonville 17-08-2026 - 02:18 23.6°C / 58%
h2-hermonville 17-08-2026 - 02:13 23.2°C / 60.5%
h1-hermonville 17-08-2026 - 02:13 20.9°C / 68%
h3-hermonville 17-08-2026 - 02:09 23.6°C / 59%
h4-hermonville 17-08-2026 - 02:08 23.6°C / 57.5%
h2-hermonville 17-08-2026 - 02:03 23.3°C / 60%
h1-hermonville 17-08-2026 - 02:03 20.8°C / 68.5%
h4-hermonville 17-08-2026 - 01:58 24.3°C / 55.5%
h2-hermonville 17-08-2026 - 01:53 23°C / 61%
h1-hermonville 17-08-2026 - 01:53 20.9°C / 68%
h3-hermonville 17-08-2026 - 01:49 23.5°C / 59%
h4-hermonville 17-08-2026 - 01:48 24.2°C / 56%
h1-hermonville 17-08-2026 - 01:43 21.2°C / 67.5%
h3-hermonville 17-08-2026 - 01:39 23.6°C / 59%
h4-hermonville 17-08-2026 - 01:38 24.4°C / 55.5%
h2-hermonville 17-08-2026 - 01:33 23.2°C / 60.5%
h1-hermonville 17-08-2026 - 01:33 21.4°C / 66.5%
h3-hermonville 17-08-2026 - 01:29 23.4°C / 59.5%
h2-hermonville 17-08-2026 - 01:23 23.8°C / 59%
h1-hermonville 17-08-2026 - 01:23 21.5°C / 66.5%
h3-hermonville 17-08-2026 - 01:19 23.5°C / 59%
h2-hermonville 17-08-2026 - 01:13 24.1°C / 58%
h1-hermonville 17-08-2026 - 01:13 21.6°C / 66%
h3-hermonville 17-08-2026 - 01:09 23.7°C / 58.5%
h4-hermonville 17-08-2026 - 01:08 25°C / 54%
h2-hermonville 17-08-2026 - 01:03 24.4°C / 57%
h1-hermonville 17-08-2026 - 01:03 21.6°C / 66%
h2-hermonville 17-08-2026 - 00:53 24.5°C / 57%
h1-hermonville 17-08-2026 - 00:53 21.7°C / 66%
h3-hermonville 17-08-2026 - 00:49 24.1°C / 57.5%
h4-hermonville 17-08-2026 - 00:48 25°C / 54.5%
h1-hermonville 17-08-2026 - 00:43 21.9°C / 65.5%
h2-hermonville 17-08-2026 - 00:33 25.1°C / 55%
h1-hermonville 17-08-2026 - 00:33 22°C / 65%
h2-hermonville 17-08-2026 - 00:23 25.2°C / 55%
h1-hermonville 17-08-2026 - 00:23 22.3°C / 64%
h3-hermonville 17-08-2026 - 00:19 24.4°C / 57%
h2-hermonville 17-08-2026 - 00:13 25.2°C / 55%
h1-hermonville 17-08-2026 - 00:13 22.3°C / 63.5%
h3-hermonville 17-08-2026 - 00:09 24.4°C / 57%
h4-hermonville 17-08-2026 - 00:08 25.6°C / 52.5%
h2-hermonville 17-08-2026 - 00:03 26°C / 53%
h1-hermonville 17-08-2026 - 00:03 22.6°C / 63%